Townsend, GA (31331)

12:04 PM EDT on July 24, 2014 (GMT -0400)
Center of Liberty (KGAMIDWA3) Elev 21 ft | 31.82 °N, 81.50 °W | Change Station

Current weather conditions updated 17 seconds ago

Partly Cloudy
Partly Cloudy
89.0 °F
Feels Like 101 °F
N
4.0
Wind Variable Wind from West
Gusts 5.0 mph

Today is forecast to be nearly the same temperature as yesterday.

Today
High -- | Low -- °F
--% Chance of Precip.
Yesterday
High -- | Low -- °F
Precip. -- in
6:36 AM 8:27 PM
Waning Crescent, 5% visible
Pressure 30.03 in
Visibility 10.0 miles
Clouds Scattered Clouds 2900 ft
Scattered Clouds 3800 ft
Heat Index 101 °F
Dew Point 76 °F
Humidity 66%
Rainfall 0.00 in
Snow Depth Not available.
UV 9 out of 12
Pollen 4.10 out of 12
Air Quality Not available.
Flu Activity Not available.
METAR KBQK 241530Z AUTO 00000KT 10SM SCT029 SCT038 32/22 A3003 RMK AO1

More Conditions Fewer Conditions

Pressure 30.03 in
Visibility 10.0 miles
Clouds Scattered Clouds 2900 ft
Scattered Clouds 3800 ft
Heat Index 101 °F
Dew Point 76 °F
Humidity 66%
Rainfall 0.00 in
Snow Depth Not available.
UV 9 out of 12
Pollen 4.10 out of 12
Air Quality Not available.
Flu Activity Not available.
METAR KBQK 241530Z AUTO 00000KT 10SM SCT029 SCT038 32/22 A3003 RMK AO1

More Conditions Fewer Conditions

10-Day Weather Forecast

Almanac

Astronomy

Jul. 24, 2014 Rise Set
Actual Time 6:36 AM EDT 8:27 PM EDT
Civil Twilight 6:09 AM EDT 8:54 PM EDT
Nautical Twilight 5:37 AM EDT 9:26 PM EDT
Astronomical Twilight 5:02 AM EDT 10:01 PM EDT
Moon 4:42 AM EDT 6:43 PM EDT
Length of Visible Light 14h 44m
Length of Day
13h 50m
Tomorrow will be 1m 15s shorter.
Waning Crescent, 5% of the Moon is Illuminated
Today
Waning Crescent
Jul 26
New
Aug 3
First Quarter
Aug 10
Full
Aug 17
Last Quarter

Today's Extremes

State Highs State Lows

Community

WunderPhotos

Upload Photos

1,737,055 photos uploaded!

Nearby

Snow Depth

Station Depth Elevation
No new snow has been reported.

Earthquake Activity

City Distance Mag. Time & Date
No recent earthquake activity has been reported nearby.
Minimum magnitude displayed is 2.5.

Coastal Water Temperatures

Place Temperature
No Stations Reporting

Nearby Weather Stations

Station Location Temp. Heat Index Dew Point Humidity Wind Precip. Elev Updated Type
RAWS MIDWAY GA, Midway, GA 87 °F 95 °F 74 °F 65% WSW  at  4 mph 0.00 in / hr 15 ft 11:04 AM EDT MADIS
Center of Liberty, Liberty County, GA 89.0 °F 101 °F 76 °F 66% West  at  4.0 mph 0.00 in / hr 21 ft 12:03 PM EDT Normal
Elim / Davenport Acres - Long County, Ludowici, GA 88.4 °F 100 °F 76 °F 67% West  at  10.4 mph 0.00 in / hr 89 ft 12:04 PM EDT Rapid Fire
Country Walk, Brunswick, GA 88.9 °F 103 °F 78 °F 71% SSE  at  2.0 mph 0.00 in / hr 30 ft 12:04 PM EDT Rapid Fire
RAWS STERLING GA, Brunswick, GA 87 °F 96 °F 74 °F 66% West  at  4 mph 0.00 in / hr 13 ft 11:04 AM EDT MADIS
Avalon Place, Brunswick, GA 87.8 °F 98 °F 76 °F 67% West  at  5.4 mph 0.00 in / hr 43 ft 12:04 PM EDT Rapid Fire

Show More Stations Show Fewer Stations